createdAt,value
2022-08-18T00:01:15.798Z,16.75
2022-08-18T00:03:52.991Z,15.68
2022-08-18T00:05:51.312Z,15.63
2022-08-18T00:07:54.914Z,16.00
2022-08-18T00:09:58.778Z,16.35
2022-08-18T00:12:07.370Z,15.48
2022-08-18T00:14:22.288Z,15.07
2022-08-18T00:16:26.338Z,15.80
2022-08-18T00:18:30.386Z,15.55
2022-08-18T00:20:34.068Z,15.43
2022-08-18T00:22:37.451Z,16.50
2022-08-18T00:24:28.132Z,15.75
2022-08-18T00:26:36.280Z,15.93
2022-08-18T00:28:41.524Z,13.88
2022-08-18T00:30:45.197Z,16.13
2022-08-18T00:32:52.969Z,14.55
2022-08-18T00:34:56.804Z,14.38
2022-08-18T00:37:00.355Z,14.35
2022-08-18T00:39:05.234Z,14.15
2022-08-18T00:41:08.323Z,14.95
2022-08-18T00:43:19.427Z,15.85
2022-08-18T00:45:29.227Z,15.38
2022-08-18T00:47:41.602Z,13.88
2022-08-18T00:49:48.634Z,13.93
2022-08-18T00:51:58.398Z,13.80
2022-08-18T00:54:06.768Z,13.23
2022-08-18T00:56:22.257Z,13.05
2022-08-18T00:58:32.409Z,12.93
2022-08-18T01:00:40.869Z,12.82
2022-08-18T01:02:51.543Z,13.15
2022-08-18T01:05:10.667Z,11.95
2022-08-18T01:07:20.772Z,13.10
2022-08-18T01:09:24.949Z,12.77
2022-08-18T01:11:15.607Z,12.52
2022-08-18T01:13:20.282Z,12.40
2022-08-18T01:15:29.387Z,12.15
2022-08-18T01:17:34.866Z,11.48
2022-08-18T01:19:38.327Z,12.07
2022-08-18T01:22:02.066Z,11.23
2022-08-18T01:24:11.026Z,11.32
2022-08-18T01:26:16.053Z,11.98
2022-08-18T01:28:18.981Z,10.57
2022-08-18T01:30:23.857Z,11.25
2022-08-18T01:32:26.879Z,9.93
2022-08-18T01:34:29.895Z,12.00
2022-08-18T01:36:34.864Z,11.02
2022-08-18T01:38:39.084Z,10.95
2022-08-18T01:41:11.134Z,11.50
2022-08-18T01:43:06.493Z,12.95
2022-08-18T01:45:12.323Z,10.57
2022-08-18T01:47:16.193Z,9.95
2022-08-18T01:49:19.654Z,11.18
2022-08-18T01:51:36.291Z,11.68
2022-08-18T01:53:43.407Z,10.38
2022-08-18T01:55:47.881Z,10.45
2022-08-18T01:57:50.906Z,11.45
2022-08-18T01:59:54.894Z,11.68
2022-08-18T02:01:57.974Z,11.70
2022-08-18T02:04:34.028Z,11.75
2022-08-18T02:06:46.455Z,10.90
2022-08-18T02:08:53.967Z,11.80
2022-08-18T02:10:59.442Z,11.07
2022-08-18T02:13:02.066Z,11.88
2022-08-18T02:15:07.185Z,11.77
2022-08-18T02:17:14.111Z,11.95
2022-08-18T02:19:18.162Z,11.73
2022-08-18T02:21:22.155Z,11.55
2022-08-18T02:23:12.994Z,11.95
2022-08-18T02:25:06.937Z,12.00
2022-08-18T02:26:59.321Z,11.98
2022-08-18T02:28:49.957Z,13.73
2022-08-18T02:30:40.730Z,12.27
2022-08-18T02:32:32.802Z,12.98
2022-08-18T02:36:15.226Z,12.45
2022-08-18T02:38:07.680Z,13.05
2022-08-18T02:39:58.544Z,13.68
2022-08-18T02:41:49.461Z,13.40
2022-08-18T02:43:42.653Z,14.02
2022-08-18T02:45:33.174Z,14.00
2022-08-18T02:47:23.953Z,13.88
2022-08-18T02:49:14.687Z,15.18
2022-08-18T02:51:07.986Z,14.20
2022-08-18T02:52:58.500Z,15.55
2022-08-18T02:54:49.555Z,13.73
2022-08-18T02:56:42.372Z,13.52
2022-08-18T02:58:33.776Z,13.38
2022-08-18T03:00:25.911Z,13.98
2022-08-18T03:02:16.709Z,14.80
2022-08-18T03:04:14.987Z,14.48
2022-08-18T03:06:06.912Z,15.73
2022-08-18T03:07:57.599Z,14.25
2022-08-18T03:09:48.521Z,14.02
2022-08-18T03:11:39.482Z,13.43
2022-08-18T03:13:30.417Z,14.30
2022-08-18T03:15:21.183Z,13.98
2022-08-18T03:17:13.276Z,13.68
2022-08-18T03:20:55.091Z,13.82
2022-08-18T03:22:45.958Z,13.70
2022-08-18T03:24:37.889Z,13.55
2022-08-18T03:26:30.529Z,15.80
2022-08-18T03:28:21.507Z,14.13
2022-08-18T03:30:12.772Z,13.45
2022-08-18T03:32:06.851Z,14.02
2022-08-18T03:34:00.188Z,15.63
2022-08-18T03:35:51.312Z,14.27
2022-08-18T03:37:48.139Z,14.07
2022-08-18T03:39:40.144Z,13.90
2022-08-18T03:41:58.692Z,15.07
2022-08-18T03:43:50.824Z,13.77
2022-08-18T03:45:42.370Z,13.85
2022-08-18T03:47:33.256Z,14.23
2022-08-18T03:49:27.175Z,14.65
2022-08-18T03:51:21.515Z,14.40
2022-08-18T03:53:12.282Z,15.63
2022-08-18T03:55:03.403Z,14.48
2022-08-18T03:56:54.342Z,15.23
2022-08-18T03:58:47.609Z,13.90
2022-08-18T04:00:39.164Z,14.68
2022-08-18T04:02:29.799Z,13.68
2022-08-18T04:04:23.377Z,14.90
2022-08-18T04:06:17.646Z,15.25
2022-08-18T04:08:21.274Z,15.35
2022-08-18T04:10:16.251Z,15.98
2022-08-18T04:12:16.198Z,15.00
2022-08-18T04:14:07.258Z,14.77
2022-08-18T04:15:59.871Z,14.70
2022-08-18T04:19:57.261Z,14.80
2022-08-18T04:21:52.682Z,15.20
2022-08-18T04:23:44.413Z,16.55
2022-08-18T04:25:34.926Z,16.10
2022-08-18T04:27:25.657Z,15.98
2022-08-18T04:29:20.208Z,16.48
2022-08-18T04:31:14.929Z,16.75
2022-08-18T04:33:05.655Z,15.25
2022-08-18T04:34:56.849Z,16.20
2022-08-18T04:36:50.777Z,15.25
2022-08-18T04:38:44.035Z,16.08
2022-08-18T04:40:34.903Z,16.48
2022-08-18T04:42:26.035Z,14.85
2022-08-18T04:44:17.202Z,16.20
2022-08-18T04:46:08.854Z,15.50
2022-08-18T04:47:59.345Z,16.77
2022-08-18T04:49:50.185Z,18.05
2022-08-18T04:52:30.879Z,19.27
2022-08-18T04:53:57.070Z,18.40
2022-08-18T04:55:49.202Z,19.65
2022-08-18T04:57:39.942Z,18.50
2022-08-18T04:59:30.411Z,19.60
2022-08-18T05:01:24.607Z,18.27
2022-08-18T05:03:15.104Z,18.25
2022-08-18T05:05:07.527Z,17.35
2022-08-18T05:08:48.736Z,19.00
2022-08-18T05:10:40.917Z,19.50
2022-08-18T05:12:31.716Z,20.27
2022-08-18T05:14:22.527Z,20.38
2022-08-18T05:16:18.025Z,23.75
2022-08-18T05:18:10.939Z,20.70
2022-08-18T05:20:07.607Z,20.95
2022-08-18T05:21:59.893Z,21.13
2022-08-18T05:23:52.235Z,21.70
2022-08-18T05:25:44.312Z,21.35
2022-08-18T05:27:38.466Z,20.10
2022-08-18T05:29:30.857Z,20.38
2022-08-18T05:31:28.045Z,20.92
2022-08-18T05:33:18.745Z,22.13
2022-08-18T05:35:16.537Z,20.50
2022-08-18T05:37:24.592Z,20.40
2022-08-18T05:39:23.696Z,20.05
2022-08-18T05:41:22.828Z,19.92
2022-08-18T05:43:14.528Z,20.60
2022-08-18T05:45:11.598Z,18.85
2022-08-18T05:47:08.550Z,17.73
2022-08-18T05:48:59.517Z,17.30
2022-08-18T05:50:51.604Z,17.73
2022-08-18T05:54:42.867Z,17.00
2022-08-18T05:56:38.237Z,16.65
2022-08-18T05:58:33.877Z,16.38
2022-08-18T06:00:25.556Z,16.08
2022-08-18T06:02:32.261Z,16.33
2022-08-18T06:04:33.693Z,16.20
2022-08-18T06:06:28.096Z,15.40
2022-08-18T06:08:24.660Z,15.60
2022-08-18T06:10:16.278Z,14.77
2022-08-18T06:12:19.416Z,16.38
2022-08-18T06:14:10.592Z,16.27
2022-08-18T06:16:12.762Z,17.42
2022-08-18T06:18:36.627Z,18.00
2022-08-18T06:20:33.732Z,19.77
2022-08-18T06:22:32.879Z,18.85
2022-08-18T06:24:36.134Z,19.60
2022-08-18T06:26:36.185Z,19.00
2022-08-18T06:28:42.547Z,17.70
2022-08-18T06:30:50.201Z,17.45
2022-08-18T06:33:00.651Z,16.35
2022-08-18T06:35:09.941Z,15.73
2022-08-18T06:37:11.217Z,15.63
2022-08-18T06:39:11.598Z,14.95
2022-08-18T06:41:40.625Z,14.43
2022-08-18T06:43:24.099Z,17.90
2022-08-18T06:45:18.738Z,15.70
2022-08-18T06:47:15.472Z,16.85
2022-08-18T06:49:10.269Z,14.55
2022-08-18T06:51:06.639Z,9.70
2022-08-18T06:52:59.621Z,9.50
2022-08-18T06:54:52.040Z,9.25
2022-08-18T06:58:41.848Z,9.68
2022-08-18T07:00:36.294Z,10.25
2022-08-18T07:02:52.360Z,9.95
2022-08-18T07:04:58.256Z,8.05
2022-08-18T07:06:49.506Z,8.35
2022-08-18T07:08:42.261Z,8.48
2022-08-18T07:10:36.402Z,8.40
2022-08-18T07:12:32.890Z,7.78
2022-08-18T07:14:24.393Z,7.07
2022-08-18T07:16:56.569Z,7.85
2022-08-18T07:18:42.058Z,8.10
2022-08-18T07:20:44.993Z,6.50
2022-08-18T07:22:56.303Z,6.38
2022-08-18T07:24:49.971Z,6.20
2022-08-18T07:27:00.392Z,5.82
2022-08-18T07:28:52.909Z,6.40
2022-08-18T07:33:05.640Z,5.50
2022-08-18T07:35:02.043Z,6.00
2022-08-18T07:37:02.098Z,6.13
2022-08-18T07:38:58.623Z,6.35
2022-08-18T07:40:59.381Z,6.35
2022-08-18T07:43:01.606Z,6.10
2022-08-18T07:45:02.747Z,5.45
2022-08-18T07:47:00.414Z,4.90
2022-08-18T07:48:52.804Z,5.80
2022-08-18T07:50:57.983Z,6.20
2022-08-18T07:53:04.978Z,5.53
2022-08-18T07:55:10.839Z,5.45
2022-08-18T07:57:14.248Z,5.13
2022-08-18T07:59:17.814Z,6.25
2022-08-18T08:01:33.628Z,5.32
2022-08-18T08:03:36.545Z,3.88
2022-08-18T08:07:40.926Z,3.72
2022-08-18T08:09:51.612Z,4.90
2022-08-18T08:11:54.570Z,3.70
2022-08-18T08:14:00.879Z,4.38
2022-08-18T08:16:02.708Z,3.63
2022-08-18T08:18:04.864Z,3.88
2022-08-18T08:20:17.979Z,3.45
2022-08-18T08:22:19.403Z,3.67
2022-08-18T08:24:17.336Z,3.70
2022-08-18T08:26:36.445Z,3.88
2022-08-18T08:28:42.695Z,3.60
2022-08-18T08:30:42.213Z,4.00
2022-08-18T08:32:37.542Z,3.25
2022-08-18T08:34:37.775Z,3.50
2022-08-18T08:36:34.397Z,3.30
2022-08-18T08:38:43.083Z,3.45
2022-08-18T08:40:46.871Z,3.53
2022-08-18T08:42:44.846Z,3.28
2022-08-18T08:44:58.355Z,3.67
2022-08-18T08:46:58.821Z,3.55
2022-08-18T08:48:56.587Z,3.08
2022-08-18T08:50:53.413Z,2.95
2022-08-18T08:52:56.724Z,2.95
2022-08-18T08:54:53.505Z,2.92
2022-08-18T08:56:48.977Z,3.00
2022-08-18T08:58:46.519Z,3.20
2022-08-18T09:00:39.707Z,3.00
2022-08-18T09:03:07.835Z,3.35
2022-08-18T09:05:09.834Z,3.75
2022-08-18T09:07:21.162Z,2.58
2022-08-18T09:09:44.909Z,2.38
2022-08-18T09:12:13.279Z,2.47
2022-08-18T09:14:54.586Z,2.30
2022-08-18T09:17:00.800Z,2.35
2022-08-18T09:19:21.647Z,2.17
2022-08-18T09:21:29.334Z,2.33
2022-08-18T09:23:24.608Z,2.17
2022-08-18T09:25:34.713Z,2.28
2022-08-18T09:28:07.360Z,2.15
2022-08-18T09:29:55.580Z,1.90
2022-08-18T09:31:47.337Z,2.15
2022-08-18T09:34:03.692Z,2.20
2022-08-18T09:36:20.167Z,1.98
2022-08-18T09:40:59.388Z,2.08
2022-08-18T09:42:52.653Z,2.20
2022-08-18T09:45:05.361Z,2.17
2022-08-18T09:47:01.333Z,2.70
2022-08-18T09:49:47.974Z,2.35
2022-08-18T09:51:42.391Z,2.17
2022-08-18T09:53:54.433Z,2.28
2022-08-18T09:56:01.315Z,1.77
2022-08-18T09:58:17.705Z,2.30
2022-08-18T10:00:30.888Z,2.30
2022-08-18T10:03:12.145Z,2.30
2022-08-18T10:05:28.152Z,2.13
2022-08-18T10:07:36.974Z,2.72
2022-08-18T10:09:43.996Z,2.45
2022-08-18T10:11:52.783Z,2.50
2022-08-18T10:14:07.978Z,2.50
2022-08-18T10:16:14.746Z,2.80
2022-08-18T10:18:30.039Z,2.92
2022-08-18T10:20:36.626Z,2.70
2022-08-18T10:22:41.811Z,2.28
2022-08-18T10:24:41.234Z,2.80
2022-08-18T10:27:36.691Z,2.53
2022-08-18T10:29:55.907Z,2.85
2022-08-18T10:32:36.486Z,2.42
2022-08-18T10:34:40.487Z,2.30
2022-08-18T10:36:50.927Z,2.60
2022-08-18T10:38:52.313Z,2.40
2022-08-18T10:40:55.966Z,2.40
2022-08-18T10:42:57.762Z,2.97
2022-08-18T10:46:50.683Z,2.20
2022-08-18T10:48:41.156Z,3.00
2022-08-18T10:50:39.628Z,3.38
2022-08-18T10:53:16.966Z,2.50
2022-08-18T10:55:48.098Z,2.75
2022-08-18T10:58:11.608Z,2.33
2022-08-18T11:00:10.220Z,2.90
2022-08-18T11:02:19.857Z,2.72
2022-08-18T11:04:34.760Z,2.90
2022-08-18T11:06:28.887Z,2.92
2022-08-18T11:08:21.988Z,3.00
2022-08-18T11:10:30.585Z,2.50
2022-08-18T11:12:58.696Z,3.03
2022-08-18T11:15:21.165Z,2.60
2022-08-18T11:17:30.994Z,2.40
2022-08-18T11:19:27.601Z,2.75
2022-08-18T11:21:32.301Z,2.70
2022-08-18T11:23:24.468Z,2.38
2022-08-18T11:25:24.995Z,2.70
2022-08-18T11:27:23.358Z,3.05
2022-08-18T11:29:25.235Z,2.70
2022-08-18T11:31:16.413Z,2.63
2022-08-18T11:33:22.848Z,2.72
2022-08-18T11:35:19.156Z,2.67
2022-08-18T11:37:24.205Z,3.03
2022-08-18T11:39:15.076Z,2.67
2022-08-18T11:41:18.014Z,2.03
2022-08-18T11:43:15.220Z,2.60
2022-08-18T11:45:17.805Z,2.70
2022-08-18T11:47:20.409Z,2.13
2022-08-18T11:49:30.787Z,2.42
2022-08-18T11:51:32.855Z,2.65
2022-08-18T11:53:35.866Z,2.70
2022-08-18T11:55:32.112Z,2.40
2022-08-18T11:57:49.432Z,2.45
2022-08-18T12:01:56.717Z,2.30
2022-08-18T12:03:48.372Z,2.80
2022-08-18T12:05:54.168Z,2.20
2022-08-18T12:07:57.096Z,2.75
2022-08-18T12:10:17.386Z,2.20
2022-08-18T12:12:28.160Z,2.42
2022-08-18T12:14:29.838Z,2.80
2022-08-18T12:16:39.681Z,2.30
2022-08-18T12:18:30.571Z,2.10
2022-08-18T12:22:36.811Z,2.50
2022-08-18T12:24:34.459Z,2.17
2022-08-18T12:26:38.241Z,2.20
2022-08-18T12:28:30.488Z,2.45
2022-08-18T12:30:21.843Z,2.40
2022-08-18T12:32:18.305Z,2.40
2022-08-18T12:34:26.582Z,2.38
2022-08-18T12:36:19.002Z,2.50
2022-08-18T12:38:14.389Z,2.65
2022-08-18T12:40:08.637Z,2.50
2022-08-18T12:41:59.668Z,2.55
2022-08-18T12:43:58.889Z,2.42
2022-08-18T12:45:53.738Z,2.25
2022-08-18T12:47:44.329Z,2.88
2022-08-18T12:49:35.094Z,2.67
2022-08-18T12:51:30.756Z,2.70
2022-08-18T12:53:30.588Z,2.78
2022-08-18T12:55:43.613Z,2.70
2022-08-18T12:57:51.909Z,3.10
2022-08-18T12:59:44.041Z,2.80
2022-08-18T13:03:30.677Z,2.92
2022-08-18T13:05:29.711Z,2.83
2022-08-18T13:07:20.722Z,2.70
2022-08-18T13:11:14.703Z,3.45
2022-08-18T13:13:13.219Z,3.50
2022-08-18T13:15:17.078Z,3.83
2022-08-18T13:17:29.528Z,3.42
2022-08-18T13:19:35.483Z,3.40
2022-08-18T13:21:45.207Z,3.28
2022-08-18T13:23:48.639Z,3.05
2022-08-18T13:25:59.466Z,3.20
2022-08-18T13:28:06.362Z,3.20
2022-08-18T13:30:30.370Z,3.40
2022-08-18T13:32:47.173Z,3.97
2022-08-18T13:35:13.302Z,3.72
2022-08-18T13:37:18.341Z,3.92
2022-08-18T13:39:31.423Z,3.60
2022-08-18T13:41:42.141Z,3.70
2022-08-18T13:43:49.137Z,3.30
2022-08-18T13:45:57.268Z,3.67
2022-08-18T13:48:02.149Z,3.40
2022-08-18T13:50:14.101Z,3.63
2022-08-18T13:52:33.412Z,3.97
2022-08-18T13:54:41.294Z,3.75
2022-08-18T13:56:51.546Z,3.75
2022-08-18T13:58:53.268Z,3.63
2022-08-18T14:01:39.788Z,4.05
2022-08-18T14:03:30.703Z,3.78
2022-08-18T14:05:51.300Z,3.55
2022-08-18T14:07:56.783Z,3.78
2022-08-18T14:09:48.206Z,3.60
2022-08-18T14:11:41.798Z,3.60
2022-08-18T14:13:38.358Z,3.03
2022-08-18T14:15:35.613Z,3.22
2022-08-18T14:17:27.183Z,2.90
2022-08-18T14:19:18.234Z,3.00
2022-08-18T14:21:14.896Z,3.08
2022-08-18T14:23:07.296Z,3.35
2022-08-18T14:24:58.211Z,3.45
2022-08-18T14:26:49.989Z,3.13
2022-08-18T14:28:42.899Z,3.33
2022-08-18T14:30:33.516Z,3.15
2022-08-18T14:32:29.862Z,2.92
2022-08-18T14:34:21.632Z,3.08
2022-08-18T14:36:18.114Z,2.95
2022-08-18T14:38:09.923Z,3.25
2022-08-18T14:40:01.803Z,3.80
2022-08-18T14:41:55.817Z,3.25
2022-08-18T14:44:10.946Z,3.70
2022-08-18T14:45:59.979Z,3.53
2022-08-18T14:47:51.739Z,3.50
2022-08-18T14:49:48.129Z,3.30
2022-08-18T14:51:38.959Z,3.40
2022-08-18T14:53:33.374Z,3.30
2022-08-18T14:55:25.526Z,3.15
2022-08-18T14:59:16.213Z,3.40
2022-08-18T15:01:10.750Z,3.63
2022-08-18T15:04:57.831Z,3.20
2022-08-18T15:06:56.140Z,3.60
2022-08-18T15:08:47.605Z,3.55
2022-08-18T15:10:38.628Z,3.05
2022-08-18T15:12:29.455Z,3.35
2022-08-18T15:14:21.958Z,3.70
2022-08-18T15:16:27.153Z,3.28
2022-08-18T15:18:23.700Z,3.20
2022-08-18T15:20:17.688Z,3.28
2022-08-18T15:22:08.271Z,3.72
2022-08-18T15:24:01.621Z,3.05
2022-08-18T15:25:52.815Z,3.05
2022-08-18T15:27:46.073Z,2.90
2022-08-18T15:29:44.828Z,3.20
2022-08-18T15:31:55.456Z,2.90
2022-08-18T15:33:50.224Z,2.72
2022-08-18T15:35:44.429Z,3.00
2022-08-18T15:37:38.625Z,2.85
2022-08-18T15:39:34.832Z,3.00
2022-08-18T15:41:33.207Z,2.60
2022-08-18T15:43:29.142Z,3.05
2022-08-18T15:45:28.302Z,3.33
2022-08-18T15:47:27.555Z,3.33
2022-08-18T15:49:19.146Z,2.97
2022-08-18T15:51:13.504Z,3.28
2022-08-18T15:53:09.183Z,2.97
2022-08-18T15:55:02.595Z,3.42
2022-08-18T15:56:55.920Z,3.03
2022-08-18T15:58:49.956Z,3.40
2022-08-18T16:00:47.289Z,3.13
2022-08-18T16:02:40.962Z,3.78
2022-08-18T16:04:35.602Z,2.55
2022-08-18T16:06:32.163Z,3.20
2022-08-18T16:08:25.527Z,3.30
2022-08-18T16:10:20.808Z,2.97
2022-08-18T16:12:11.823Z,3.15
2022-08-18T16:14:02.700Z,2.60
2022-08-18T16:15:55.249Z,2.60
2022-08-18T16:17:46.224Z,2.88
2022-08-18T16:19:38.785Z,2.90
2022-08-18T16:21:32.167Z,2.70
2022-08-18T16:23:23.687Z,2.78
2022-08-18T16:25:17.852Z,2.80
2022-08-18T16:27:08.896Z,3.03
2022-08-18T16:29:01.769Z,2.60
2022-08-18T16:30:54.090Z,2.95
2022-08-18T16:32:45.145Z,3.00
2022-08-18T16:34:42.288Z,3.30
2022-08-18T16:36:34.272Z,3.45
2022-08-18T16:38:32.352Z,3.20
2022-08-18T16:40:24.281Z,3.03
2022-08-18T16:42:19.165Z,3.13
2022-08-18T16:44:09.703Z,2.97
2022-08-18T16:46:02.291Z,2.90
2022-08-18T16:47:54.427Z,3.15
2022-08-18T16:49:58.520Z,3.45
2022-08-18T16:51:49.555Z,2.80
2022-08-18T16:53:40.711Z,2.85
2022-08-18T16:55:31.975Z,3.20
2022-08-18T16:57:23.920Z,2.60
2022-08-18T16:59:34.781Z,3.03
2022-08-18T17:01:26.936Z,2.90
2022-08-18T17:03:25.003Z,2.58
2022-08-18T17:05:16.132Z,2.45
2022-08-18T17:07:07.480Z,2.33
2022-08-18T17:09:00.891Z,2.47
2022-08-18T17:11:01.365Z,2.88
2022-08-18T17:12:53.463Z,2.30
2022-08-18T17:14:44.675Z,2.60
2022-08-18T17:16:38.418Z,2.60
2022-08-18T17:18:31.550Z,2.38
2022-08-18T17:20:28.393Z,2.20
2022-08-18T17:22:19.610Z,2.60
2022-08-18T17:24:11.553Z,2.50
2022-08-18T17:26:03.833Z,2.38
2022-08-18T17:27:54.987Z,2.58
2022-08-18T17:29:57.161Z,2.55
2022-08-18T17:31:58.871Z,2.33
2022-08-18T17:33:54.975Z,2.42
2022-08-18T17:35:47.153Z,2.25
2022-08-18T17:37:43.895Z,2.15
2022-08-18T17:39:40.920Z,2.42
2022-08-18T17:41:33.496Z,2.50
2022-08-18T17:43:30.567Z,2.63
2022-08-18T17:45:27.892Z,2.25
2022-08-18T17:47:25.863Z,2.42
2022-08-18T17:49:33.118Z,2.65
2022-08-18T17:51:31.331Z,2.72
2022-08-18T17:53:24.915Z,2.35
2022-08-18T17:55:26.583Z,2.50
2022-08-18T17:57:29.329Z,2.47
2022-08-18T17:59:45.691Z,2.40
2022-08-18T18:01:40.851Z,2.70
2022-08-18T18:05:28.616Z,2.28
2022-08-18T18:07:28.946Z,2.67
2022-08-18T18:09:30.809Z,3.00
2022-08-18T18:11:28.502Z,2.50
2022-08-18T18:13:27.787Z,2.95
2022-08-18T18:15:32.913Z,2.85
2022-08-18T18:17:28.949Z,2.60
2022-08-18T18:19:25.159Z,2.33
2022-08-18T18:21:21.851Z,2.60
2022-08-18T18:23:19.031Z,2.33
2022-08-18T18:25:13.141Z,2.80
2022-08-18T18:27:30.134Z,2.40
2022-08-18T18:29:29.479Z,2.33
2022-08-18T18:31:25.676Z,2.90
2022-08-18T18:33:24.848Z,2.60
2022-08-18T18:35:54.281Z,3.15
2022-08-18T18:37:54.584Z,2.85
2022-08-18T18:39:55.943Z,2.88
2022-08-18T18:41:48.605Z,2.90
2022-08-18T18:43:42.406Z,2.90
2022-08-18T18:45:34.709Z,2.75
2022-08-18T18:47:54.833Z,3.00
2022-08-18T18:49:55.698Z,3.47
2022-08-18T18:52:11.216Z,2.92
2022-08-18T18:54:20.772Z,2.60
2022-08-18T18:56:29.619Z,3.28
2022-08-18T18:58:32.186Z,3.00
2022-08-18T19:00:29.631Z,2.92
2022-08-18T19:02:36.935Z,3.05
2022-08-18T19:04:36.813Z,2.95
2022-08-18T19:06:37.255Z,2.95
2022-08-18T19:08:40.223Z,3.38
2022-08-18T19:10:40.773Z,2.78
2022-08-18T19:12:43.468Z,3.28
2022-08-18T19:14:41.846Z,2.83
2022-08-18T19:16:38.607Z,2.90
2022-08-18T19:18:38.558Z,2.95
2022-08-18T19:20:39.385Z,3.22
2022-08-18T19:22:40.069Z,2.88
2022-08-18T19:24:34.216Z,2.88
2022-08-18T19:26:33.372Z,2.70
2022-08-18T19:28:59.790Z,3.17
2022-08-18T19:30:54.519Z,2.67
2022-08-18T19:32:52.034Z,3.50
2022-08-18T19:34:51.351Z,2.97
2022-08-18T19:36:52.077Z,3.58
2022-08-18T19:38:59.246Z,3.22
2022-08-18T19:40:59.143Z,3.10
2022-08-18T19:42:56.886Z,3.20
2022-08-18T19:45:15.407Z,3.22
2022-08-18T19:47:16.675Z,3.03
2022-08-18T19:49:22.459Z,2.67
2022-08-18T19:51:21.591Z,3.25
2022-08-18T19:53:39.556Z,2.90
2022-08-18T19:55:48.474Z,3.17
2022-08-18T19:58:09.849Z,3.25
2022-08-18T20:00:22.630Z,3.53
2022-08-18T20:02:38.067Z,3.55
2022-08-18T20:04:50.729Z,3.35
2022-08-18T20:07:11.581Z,3.10
2022-08-18T20:09:24.535Z,2.85
2022-08-18T20:11:56.939Z,3.63
2022-08-18T20:13:54.163Z,3.20
2022-08-18T20:16:12.317Z,2.90
2022-08-18T20:18:21.499Z,3.22
2022-08-18T20:20:16.438Z,3.28
2022-08-18T20:22:16.263Z,3.35
2022-08-18T20:24:49.953Z,3.85
2022-08-18T20:26:48.483Z,4.72
2022-08-18T20:28:41.275Z,4.50
2022-08-18T20:30:58.018Z,4.97
2022-08-18T20:33:29.487Z,4.93
2022-08-18T20:35:26.340Z,5.30
2022-08-18T20:37:25.406Z,5.63
2022-08-18T20:39:40.724Z,6.43
2022-08-18T20:41:45.304Z,5.13
2022-08-18T20:43:43.065Z,5.55
2022-08-18T20:45:36.753Z,6.07
2022-08-18T20:47:59.492Z,5.50
2022-08-18T20:50:24.699Z,4.97
2022-08-18T20:52:32.628Z,5.50
2022-08-18T20:54:58.160Z,5.40
2022-08-18T20:57:00.149Z,5.78
2022-08-18T20:59:00.577Z,6.38
2022-08-18T21:00:56.206Z,6.18
2022-08-18T21:02:49.973Z,6.93
2022-08-18T21:04:52.596Z,6.65
2022-08-18T21:06:44.539Z,6.95
2022-08-18T21:08:38.654Z,6.00
2022-08-18T21:10:32.014Z,6.53
2022-08-18T21:12:29.944Z,7.03
2022-08-18T21:14:31.746Z,6.57
2022-08-18T21:16:41.927Z,7.05
2022-08-18T21:18:33.114Z,6.57
2022-08-18T21:20:26.744Z,7.28
2022-08-18T21:22:19.274Z,6.60
2022-08-18T21:24:27.872Z,6.68
2022-08-18T21:26:22.593Z,7.05
2022-08-18T21:28:14.992Z,6.93
2022-08-18T21:30:16.478Z,6.13
2022-08-18T21:32:16.417Z,6.05
2022-08-18T21:34:12.093Z,7.07
2022-08-18T21:36:11.696Z,6.50
2022-08-18T21:38:06.241Z,7.18
2022-08-18T21:39:59.889Z,7.68
2022-08-18T21:41:56.296Z,7.82
2022-08-18T21:43:50.518Z,8.13
2022-08-18T21:45:47.745Z,7.30
2022-08-18T21:47:49.156Z,7.93
2022-08-18T21:49:40.258Z,7.72
2022-08-18T21:51:44.446Z,7.70
2022-08-18T21:53:36.373Z,7.88
2022-08-18T21:55:32.777Z,7.80
2022-08-18T21:57:27.065Z,6.82
2022-08-18T21:59:20.321Z,6.40
2022-08-18T22:01:20.404Z,7.80
2022-08-18T22:03:22.820Z,7.15
2022-08-18T22:05:27.009Z,6.75
2022-08-18T22:07:35.318Z,6.97
2022-08-18T22:09:30.448Z,6.18
2022-08-18T22:11:43.540Z,5.53
2022-08-18T22:13:50.238Z,5.70
2022-08-18T22:15:44.366Z,5.45
2022-08-18T22:17:49.749Z,5.72
2022-08-18T22:19:42.988Z,5.68
2022-08-18T22:23:37.903Z,5.63
2022-08-18T22:25:32.374Z,5.72
2022-08-18T22:27:26.608Z,5.68
2022-08-18T22:29:28.326Z,5.75
2022-08-18T22:31:21.590Z,6.28
2022-08-18T22:33:12.444Z,5.28
2022-08-18T22:35:07.096Z,6.13
2022-08-18T22:37:01.367Z,6.15
2022-08-18T22:38:52.366Z,5.40
2022-08-18T22:40:42.983Z,5.43
2022-08-18T22:42:34.780Z,6.25
2022-08-18T22:44:26.658Z,6.50
2022-08-18T22:46:21.536Z,6.30
2022-08-18T22:48:16.355Z,6.55
2022-08-18T22:50:10.078Z,6.45
2022-08-18T22:52:00.868Z,7.32
2022-08-18T22:53:51.802Z,6.35
2022-08-18T22:55:43.848Z,6.32
2022-08-18T22:57:36.606Z,5.85
2022-08-18T22:59:29.186Z,6.13
2022-08-18T23:01:25.216Z,6.53
2022-08-18T23:03:18.830Z,7.22
2022-08-18T23:05:11.533Z,6.70
2022-08-18T23:07:02.650Z,5.85
2022-08-18T23:08:55.841Z,6.88
2022-08-18T23:10:48.055Z,7.45
2022-08-18T23:12:38.865Z,6.75
2022-08-18T23:14:29.944Z,6.65
2022-08-18T23:16:30.626Z,8.25
2022-08-18T23:20:19.352Z,7.85
2022-08-18T23:22:11.178Z,7.15
2022-08-18T23:24:09.766Z,6.47
2022-08-18T23:26:00.759Z,7.63
2022-08-18T23:27:51.443Z,7.65
2022-08-18T23:29:42.421Z,8.75
2022-08-18T23:31:33.968Z,7.60
2022-08-18T23:33:26.165Z,8.17
2022-08-18T23:35:20.250Z,7.72
2022-08-18T23:37:12.223Z,8.57
2022-08-18T23:39:03.464Z,8.05
2022-08-18T23:40:55.745Z,7.10
2022-08-18T23:42:46.515Z,8.20
2022-08-18T23:44:38.098Z,7.60
2022-08-18T23:46:31.334Z,7.70
2022-08-18T23:48:22.169Z,7.93
2022-08-18T23:50:13.219Z,8.02
2022-08-18T23:52:05.645Z,7.88
2022-08-18T23:53:59.222Z,8.00
2022-08-18T23:55:51.575Z,8.20
2022-08-18T23:57:42.396Z,7.88
2022-08-18T23:59:34.991Z,7.95
